EKRA weather

Rarup Airport
Rarup, Central Jutland, Denmark

Public forecast

Using degrees Celsius for public forecast. Weather courtesy of forecast.io.

METAR (pilot weather report)

Closest report is Odense Airport, 22.5 nm (41.6 km) SE. Retrieved 2019/05/22 10:20 UTC (0 seconds ago):

EKOD 221020Z 29012KT 9999 SCT008 SCT014 OVC017 11/10 Q1013

TAF (pilot weather forecast)

Closest forecast is Billund Airport, 26.7 nm (49.4 km) W. Retrieved 2019/05/22 06:18 UTC (4 hours ago):

TAF EKBI 220511Z 2206/2306 30012KT 8000 -RA BKN005 TEMPO 2206/2208 4000 RA BR BKN003 TEMPO 2208/2211 BKN012 BECMG 2211/2213 BKN020 TEMPO 2219/2222 BKN007 TEMPO 2222/2306 3500 BR BKN004